sensor_id;sensor_type;location;lat;lon;timestamp;temperature;humidity
49503;DHT22;35409;48.776;9.204;2023-04-24T00:02:04;11.00;99.90
49503;DHT22;35409;48.776;9.204;2023-04-24T00:04:32;11.10;99.90
49503;DHT22;35409;48.776;9.204;2023-04-24T00:06:57;11.10;99.90
49503;DHT22;35409;48.776;9.204;2023-04-24T00:09:25;11.10;99.90
49503;DHT22;35409;48.776;9.204;2023-04-24T00:11:51;11.10;99.90
49503;DHT22;35409;48.776;9.204;2023-04-24T00:14:17;11.20;99.90
49503;DHT22;35409;48.776;9.204;2023-04-24T00:16:43;11.20;99.90
49503;DHT22;35409;48.776;9.204;2023-04-24T00:19:08;11.30;99.90
49503;DHT22;35409;48.776;9.204;2023-04-24T00:21:35;11.20;99.90
49503;DHT22;35409;48.776;9.204;2023-04-24T00:24:00;11.20;99.90
49503;DHT22;35409;48.776;9.204;2023-04-24T00:26:26;11.10;99.90
49503;DHT22;35409;48.776;9.204;2023-04-24T00:28:51;11.10;99.90
49503;DHT22;35409;48.776;9.204;2023-04-24T00:31:17;11.00;99.90
49503;DHT22;35409;48.776;9.204;2023-04-24T00:33:43;11.00;99.90
49503;DHT22;35409;48.776;9.204;2023-04-24T00:36:08;11.00;99.90
49503;DHT22;35409;48.776;9.204;2023-04-24T00:38:34;11.10;99.90
49503;DHT22;35409;48.776;9.204;2023-04-24T00:41:00;11.10;99.90
49503;DHT22;35409;48.776;9.204;2023-04-24T00:43:25;11.20;99.90
49503;DHT22;35409;48.776;9.204;2023-04-24T00:45:51;11.20;99.90
49503;DHT22;35409;48.776;9.204;2023-04-24T00:48:17;11.20;99.90
49503;DHT22;35409;48.776;9.204;2023-04-24T00:50:43;11.10;99.90
49503;DHT22;35409;48.776;9.204;2023-04-24T00:53:09;11.20;99.90
49503;DHT22;35409;48.776;9.204;2023-04-24T00:55:35;11.20;99.90
49503;DHT22;35409;48.776;9.204;2023-04-24T00:58:02;11.30;99.90
49503;DHT22;35409;48.776;9.204;2023-04-24T01:00:28;11.40;99.90
49503;DHT22;35409;48.776;9.204;2023-04-24T01:02:55;11.40;99.90
49503;DHT22;35409;48.776;9.204;2023-04-24T01:05:21;11.50;99.90
49503;DHT22;35409;48.776;9.204;2023-04-24T01:07:47;11.60;99.90
49503;DHT22;35409;48.776;9.204;2023-04-24T01:10:15;11.60;99.90
49503;DHT22;35409;48.776;9.204;2023-04-24T01:12:41;11.60;99.90
49503;DHT22;35409;48.776;9.204;2023-04-24T01:15:07;11.50;99.90
49503;DHT22;35409;48.776;9.204;2023-04-24T01:17:33;11.60;99.90
49503;DHT22;35409;48.776;9.204;2023-04-24T01:19:59;11.60;99.90
49503;DHT22;35409;48.776;9.204;2023-04-24T01:22:25;11.60;99.90
49503;DHT22;35409;48.776;9.204;2023-04-24T01:24:52;11.60;99.90
49503;DHT22;35409;48.776;9.204;2023-04-24T01:27:19;11.50;99.90
49503;DHT22;35409;48.776;9.204;2023-04-24T01:29:44;11.50;99.90
49503;DHT22;35409;48.776;9.204;2023-04-24T01:32:11;11.50;99.90
49503;DHT22;35409;48.776;9.204;2023-04-24T01:34:37;11.50;99.90
49503;DHT22;35409;48.776;9.204;2023-04-24T01:37:03;11.50;99.90
49503;DHT22;35409;48.776;9.204;2023-04-24T01:39:30;11.40;99.90
49503;DHT22;35409;48.776;9.204;2023-04-24T01:41:56;11.20;99.90
49503;DHT22;35409;48.776;9.204;2023-04-24T01:44:22;11.10;99.90
49503;DHT22;35409;48.776;9.204;2023-04-24T01:46:48;11.00;99.90
49503;DHT22;35409;48.776;9.204;2023-04-24T01:49:13;10.90;99.90
49503;DHT22;35409;48.776;9.204;2023-04-24T01:51:39;10.90;99.90
49503;DHT22;35409;48.776;9.204;2023-04-24T01:54:05;10.90;99.90
49503;DHT22;35409;48.776;9.204;2023-04-24T01:56:33;10.90;99.90
49503;DHT22;35409;48.776;9.204;2023-04-24T01:59:03;10.90;99.90
49503;DHT22;35409;48.776;9.204;2023-04-24T02:01:34;10.90;99.90
49503;DHT22;35409;48.776;9.204;2023-04-24T02:04:01;10.90;99.90
49503;DHT22;35409;48.776;9.204;2023-04-24T02:06:27;10.90;99.90
49503;DHT22;35409;48.776;9.204;2023-04-24T02:08:52;10.90;99.90
49503;DHT22;35409;48.776;9.204;2023-04-24T02:11:18;10.90;99.90
49503;DHT22;35409;48.776;9.204;2023-04-24T02:13:44;10.80;99.90
49503;DHT22;35409;48.776;9.204;2023-04-24T02:16:10;10.80;99.90
49503;DHT22;35409;48.776;9.204;2023-04-24T02:18:35;10.80;99.90
49503;DHT22;35409;48.776;9.204;2023-04-24T02:21:01;10.70;99.90
49503;DHT22;35409;48.776;9.204;2023-04-24T02:23:26;10.70;99.90
49503;DHT22;35409;48.776;9.204;2023-04-24T02:25:53;10.70;99.90
49503;DHT22;35409;48.776;9.204;2023-04-24T02:28:19;10.70;99.90
49503;DHT22;35409;48.776;9.204;2023-04-24T02:30:44;10.70;99.90
49503;DHT22;35409;48.776;9.204;2023-04-24T02:33:11;10.70;99.90
49503;DHT22;35409;48.776;9.204;2023-04-24T02:35:37;10.70;99.90
49503;DHT22;35409;48.776;9.204;2023-04-24T02:38:02;10.80;99.90
49503;DHT22;35409;48.776;9.204;2023-04-24T02:40:28;10.80;99.90
49503;DHT22;35409;48.776;9.204;2023-04-24T02:42:54;10.80;99.90
49503;DHT22;35409;48.776;9.204;2023-04-24T02:45:20;10.80;99.90
49503;DHT22;35409;48.776;9.204;2023-04-24T02:47:45;10.80;99.90
49503;DHT22;35409;48.776;9.204;2023-04-24T02:50:11;10.80;99.90
49503;DHT22;35409;48.776;9.204;2023-04-24T02:52:36;10.70;99.90
49503;DHT22;35409;48.776;9.204;2023-04-24T02:59:56;10.20;99.90
49503;DHT22;35409;48.776;9.204;2023-04-24T04:57:01;9.00;99.90
49503;DHT22;35409;48.776;9.204;2023-04-24T04:59:27;8.90;99.90
49503;DHT22;35409;48.776;9.204;2023-04-24T05:01:52;8.70;99.90
49503;DHT22;35409;48.776;9.204;2023-04-24T05:04:18;8.60;99.90
49503;DHT22;35409;48.776;9.204;2023-04-24T05:06:44;8.50;99.90
49503;DHT22;35409;48.776;9.204;2023-04-24T05:09:10;8.50;99.90
49503;DHT22;35409;48.776;9.204;2023-04-24T05:11:35;8.50;99.90
49503;DHT22;35409;48.776;9.204;2023-04-24T05:14:01;8.50;99.90
49503;DHT22;35409;48.776;9.204;2023-04-24T05:16:26;8.50;99.90
49503;DHT22;35409;48.776;9.204;2023-04-24T05:18:52;8.60;99.90
49503;DHT22;35409;48.776;9.204;2023-04-24T05:21:18;8.60;99.90
49503;DHT22;35409;48.776;9.204;2023-04-24T05:23:43;8.60;99.90
49503;DHT22;35409;48.776;9.204;2023-04-24T05:26:09;8.60;99.90
49503;DHT22;35409;48.776;9.204;2023-04-24T05:28:34;8.70;99.90
49503;DHT22;35409;48.776;9.204;2023-04-24T05:31:02;8.70;99.90
49503;DHT22;35409;48.776;9.204;2023-04-24T05:33:27;8.80;99.90
49503;DHT22;35409;48.776;9.204;2023-04-24T05:35:53;8.80;99.90
49503;DHT22;35409;48.776;9.204;2023-04-24T05:38:19;8.80;99.90
49503;DHT22;35409;48.776;9.204;2023-04-24T05:40:45;8.90;99.90
49503;DHT22;35409;48.776;9.204;2023-04-24T05:43:11;8.90;99.90
49503;DHT22;35409;48.776;9.204;2023-04-24T05:45:38;8.90;99.90
49503;DHT22;35409;48.776;9.204;2023-04-24T05:48:03;9.00;99.90
49503;DHT22;35409;48.776;9.204;2023-04-24T05:50:29;9.00;99.90
49503;DHT22;35409;48.776;9.204;2023-04-24T05:52:55;9.10;99.90
49503;DHT22;35409;48.776;9.204;2023-04-24T05:55:24;9.10;99.90
49503;DHT22;35409;48.776;9.204;2023-04-24T05:57:50;9.20;99.90
49503;DHT22;35409;48.776;9.204;2023-04-24T06:00:15;9.20;99.90
49503;DHT22;35409;48.776;9.204;2023-04-24T06:02:43;9.30;99.90
49503;DHT22;35409;48.776;9.204;2023-04-24T06:05:08;9.30;99.90
49503;DHT22;35409;48.776;9.204;2023-04-24T06:07:34;9.30;99.90
49503;DHT22;35409;48.776;9.204;2023-04-24T06:10:00;9.40;99.90
49503;DHT22;35409;48.776;9.204;2023-04-24T06:12:26;9.40;99.90
49503;DHT22;35409;48.776;9.204;2023-04-24T06:14:52;9.40;99.90
49503;DHT22;35409;48.776;9.204;2023-04-24T06:17:19;9.40;99.90
49503;DHT22;35409;48.776;9.204;2023-04-24T06:19:45;9.40;99.90
49503;DHT22;35409;48.776;9.204;2023-04-24T06:22:10;9.40;99.90
49503;DHT22;35409;48.776;9.204;2023-04-24T06:24:36;9.30;99.90
49503;DHT22;35409;48.776;9.204;2023-04-24T06:27:01;9.30;99.90
49503;DHT22;35409;48.776;9.204;2023-04-24T06:29:27;9.40;99.90
49503;DHT22;35409;48.776;9.204;2023-04-24T06:31:53;9.50;99.90
49503;DHT22;35409;48.776;9.204;2023-04-24T06:34:19;9.70;99.90
49503;DHT22;35409;48.776;9.204;2023-04-24T06:36:46;9.80;99.90
49503;DHT22;35409;48.776;9.204;2023-04-24T06:39:12;10.00;99.90
49503;DHT22;35409;48.776;9.204;2023-04-24T06:41:37;10.10;99.90
49503;DHT22;35409;48.776;9.204;2023-04-24T06:44:03;10.30;99.90
49503;DHT22;35409;48.776;9.204;2023-04-24T06:46:29;10.40;99.90
49503;DHT22;35409;48.776;9.204;2023-04-24T06:48:55;10.60;99.90
49503;DHT22;35409;48.776;9.204;2023-04-24T06:51:22;10.80;99.90
49503;DHT22;35409;48.776;9.204;2023-04-24T06:53:48;10.90;99.90
49503;DHT22;35409;48.776;9.204;2023-04-24T06:56:15;11.10;99.90
49503;DHT22;35409;48.776;9.204;2023-04-24T06:58:41;11.20;99.90
49503;DHT22;35409;48.776;9.204;2023-04-24T07:01:07;11.40;99.90
49503;DHT22;35409;48.776;9.204;2023-04-24T07:03:32;11.50;99.90
49503;DHT22;35409;48.776;9.204;2023-04-24T07:05:58;11.70;99.90
49503;DHT22;35409;48.776;9.204;2023-04-24T07:08:24;11.80;99.90
49503;DHT22;35409;48.776;9.204;2023-04-24T07:10:50;11.90;99.90
49503;DHT22;35409;48.776;9.204;2023-04-24T07:13:16;12.10;99.90
49503;DHT22;35409;48.776;9.204;2023-04-24T07:15:42;12.20;99.90
49503;DHT22;35409;48.776;9.204;2023-04-24T07:18:08;12.20;99.90
49503;DHT22;35409;48.776;9.204;2023-04-24T07:20:34;12.10;99.90
49503;DHT22;35409;48.776;9.204;2023-04-24T07:23:00;12.00;99.90
49503;DHT22;35409;48.776;9.204;2023-04-24T07:25:25;11.90;99.90
49503;DHT22;35409;48.776;9.204;2023-04-24T07:27:51;11.80;99.90
49503;DHT22;35409;48.776;9.204;2023-04-24T07:30:17;11.70;99.90
49503;DHT22;35409;48.776;9.204;2023-04-24T07:32:43;11.70;99.90
49503;DHT22;35409;48.776;9.204;2023-04-24T07:35:09;11.90;99.90
49503;DHT22;35409;48.776;9.204;2023-04-24T07:37:35;12.00;99.90
49503;DHT22;35409;48.776;9.204;2023-04-24T07:40:01;12.10;99.90
49503;DHT22;35409;48.776;9.204;2023-04-24T07:42:26;12.20;99.90
49503;DHT22;35409;48.776;9.204;2023-04-24T07:44:53;12.20;99.90
49503;DHT22;35409;48.776;9.204;2023-04-24T07:47:18;12.50;99.90
49503;DHT22;35409;48.776;9.204;2023-04-24T07:49:44;12.70;99.90
49503;DHT22;35409;48.776;9.204;2023-04-24T07:52:10;12.90;99.90
49503;DHT22;35409;48.776;9.204;2023-04-24T07:54:35;13.00;99.90
49503;DHT22;35409;48.776;9.204;2023-04-24T07:57:02;13.40;99.90
49503;DHT22;35409;48.776;9.204;2023-04-24T07:59:28;13.70;99.90
49503;DHT22;35409;48.776;9.204;2023-04-24T08:01:54;13.80;99.90
49503;DHT22;35409;48.776;9.204;2023-04-24T08:04:19;13.80;99.90
49503;DHT22;35409;48.776;9.204;2023-04-24T08:06:47;13.80;99.90
49503;DHT22;35409;48.776;9.204;2023-04-24T08:09:13;13.70;99.90
49503;DHT22;35409;48.776;9.204;2023-04-24T08:11:38;13.60;99.90
49503;DHT22;35409;48.776;9.204;2023-04-24T08:14:04;13.50;99.90
49503;DHT22;35409;48.776;9.204;2023-04-24T08:16:30;13.40;99.90
49503;DHT22;35409;48.776;9.204;2023-04-24T08:18:55;13.30;99.90
49503;DHT22;35409;48.776;9.204;2023-04-24T08:21:21;13.20;99.90
49503;DHT22;35409;48.776;9.204;2023-04-24T08:23:46;13.00;99.90
49503;DHT22;35409;48.776;9.204;2023-04-24T08:26:13;12.90;99.90
49503;DHT22;35409;48.776;9.204;2023-04-24T08:28:38;12.80;99.90
49503;DHT22;35409;48.776;9.204;2023-04-24T08:31:04;12.70;99.90
49503;DHT22;35409;48.776;9.204;2023-04-24T08:33:30;12.70;99.90
49503;DHT22;35409;48.776;9.204;2023-04-24T08:36:01;12.70;99.90
49503;DHT22;35409;48.776;9.204;2023-04-24T08:38:27;12.60;99.90
49503;DHT22;35409;48.776;9.204;2023-04-24T08:40:52;12.70;99.90
49503;DHT22;35409;48.776;9.204;2023-04-24T08:43:18;12.70;99.90
49503;DHT22;35409;48.776;9.204;2023-04-24T08:45:47;12.80;99.90
49503;DHT22;35409;48.776;9.204;2023-04-24T08:48:13;12.80;99.90
49503;DHT22;35409;48.776;9.204;2023-04-24T08:50:40;12.80;99.90
49503;DHT22;35409;48.776;9.204;2023-04-24T08:53:08;12.70;99.90
49503;DHT22;35409;48.776;9.204;2023-04-24T08:55:34;12.60;99.90
49503;DHT22;35409;48.776;9.204;2023-04-24T08:58:01;12.50;99.90
49503;DHT22;35409;48.776;9.204;2023-04-24T09:00:28;12.40;99.90
49503;DHT22;35409;48.776;9.204;2023-04-24T09:02:54;12.50;99.90
49503;DHT22;35409;48.776;9.204;2023-04-24T09:05:22;12.70;99.90
49503;DHT22;35409;48.776;9.204;2023-04-24T09:07:53;12.90;99.90
49503;DHT22;35409;48.776;9.204;2023-04-24T09:10:21;13.00;99.90
49503;DHT22;35409;48.776;9.204;2023-04-24T09:12:47;13.00;99.90
49503;DHT22;35409;48.776;9.204;2023-04-24T09:15:13;12.80;99.90
49503;DHT22;35409;48.776;9.204;2023-04-24T09:17:38;12.60;99.90
49503;DHT22;35409;48.776;9.204;2023-04-24T09:20:05;12.40;99.90
49503;DHT22;35409;48.776;9.204;2023-04-24T09:22:31;12.10;99.90
49503;DHT22;35409;48.776;9.204;2023-04-24T09:25:05;11.80;99.90
49503;DHT22;35409;48.776;9.204;2023-04-24T09:27:35;11.60;99.90
49503;DHT22;35409;48.776;9.204;2023-04-24T09:30:02;11.50;99.90
49503;DHT22;35409;48.776;9.204;2023-04-24T09:32:28;11.50;99.90
49503;DHT22;35409;48.776;9.204;2023-04-24T09:35:14;11.40;99.90
49503;DHT22;35409;48.776;9.204;2023-04-24T09:37:46;11.20;99.90
49503;DHT22;35409;48.776;9.204;2023-04-24T09:40:19;11.10;99.90
49503;DHT22;35409;48.776;9.204;2023-04-24T09:42:55;11.10;99.90
49503;DHT22;35409;48.776;9.204;2023-04-24T09:45:22;11.20;99.90
49503;DHT22;35409;48.776;9.204;2023-04-24T09:47:52;11.30;99.90
49503;DHT22;35409;48.776;9.204;2023-04-24T09:50:21;11.40;99.90
49503;DHT22;35409;48.776;9.204;2023-04-24T09:52:56;11.60;99.90
49503;DHT22;35409;48.776;9.204;2023-04-24T09:55:22;12.00;99.90
49503;DHT22;35409;48.776;9.204;2023-04-24T10:00:18;12.40;99.90
49503;DHT22;35409;48.776;9.204;2023-04-24T10:02:44;12.60;99.90
49503;DHT22;35409;48.776;9.204;2023-04-24T10:05:11;12.60;99.90
49503;DHT22;35409;48.776;9.204;2023-04-24T10:07:38;12.80;99.90
49503;DHT22;35409;48.776;9.204;2023-04-24T10:10:04;12.90;99.90
49503;DHT22;35409;48.776;9.204;2023-04-24T10:12:30;13.00;99.90
49503;DHT22;35409;48.776;9.204;2023-04-24T10:14:56;13.20;99.90
49503;DHT22;35409;48.776;9.204;2023-04-24T10:17:24;13.20;99.90
49503;DHT22;35409;48.776;9.204;2023-04-24T10:19:51;13.00;99.30
49503;DHT22;35409;48.776;9.204;2023-04-24T10:22:17;13.00;99.00
49503;DHT22;35409;48.776;9.204;2023-04-24T10:24:44;13.10;98.10
49503;DHT22;35409;48.776;9.204;2023-04-24T10:27:11;13.40;96.80
49503;DHT22;35409;48.776;9.204;2023-04-24T10:29:39;13.60;96.80
49503;DHT22;35409;48.776;9.204;2023-04-24T10:32:07;14.00;95.80
49503;DHT22;35409;48.776;9.204;2023-04-24T10:34:32;14.20;95.40
49503;DHT22;35409;48.776;9.204;2023-04-24T10:36:58;14.40;95.60
49503;DHT22;35409;48.776;9.204;2023-04-24T10:39:24;14.60;94.30
49503;DHT22;35409;48.776;9.204;2023-04-24T10:41:50;14.70;93.10
49503;DHT22;35409;48.776;9.204;2023-04-24T10:44:16;14.50;93.30
49503;DHT22;35409;48.776;9.204;2023-04-24T10:46:46;14.20;93.40
49503;DHT22;35409;48.776;9.204;2023-04-24T10:49:15;14.00;94.00
49503;DHT22;35409;48.776;9.204;2023-04-24T10:51:49;13.90;94.20
49503;DHT22;35409;48.776;9.204;2023-04-24T10:54:29;13.90;94.30
49503;DHT22;35409;48.776;9.204;2023-04-24T10:59:46;13.70;94.80
49503;DHT22;35409;48.776;9.204;2023-04-24T11:02:15;13.70;95.40
49503;DHT22;35409;48.776;9.204;2023-04-24T11:04:41;13.80;95.60
49503;DHT22;35409;48.776;9.204;2023-04-24T11:07:10;14.00;95.70
49503;DHT22;35409;48.776;9.204;2023-04-24T11:09:37;14.00;94.80
49503;DHT22;35409;48.776;9.204;2023-04-24T11:12:12;14.00;95.00
49503;DHT22;35409;48.776;9.204;2023-04-24T11:17:37;13.60;96.00
49503;DHT22;35409;48.776;9.204;2023-04-24T11:20:17;13.40;95.80
49503;DHT22;35409;48.776;9.204;2023-04-24T11:22:43;13.30;95.20
49503;DHT22;35409;48.776;9.204;2023-04-24T11:25:09;13.30;95.30
49503;DHT22;35409;48.776;9.204;2023-04-24T11:27:42;13.30;95.50
49503;DHT22;35409;48.776;9.204;2023-04-24T11:30:09;13.40;95.20
49503;DHT22;35409;48.776;9.204;2023-04-24T11:32:47;13.60;95.30
49503;DHT22;35409;48.776;9.204;2023-04-24T11:35:23;13.90;94.30
49503;DHT22;35409;48.776;9.204;2023-04-24T11:37:52;14.20;94.20
49503;DHT22;35409;48.776;9.204;2023-04-24T11:40:20;14.50;94.10
49503;DHT22;35409;48.776;9.204;2023-04-24T11:42:47;14.70;94.20
49503;DHT22;35409;48.776;9.204;2023-04-24T11:47:49;14.80;92.70
49503;DHT22;35409;48.776;9.204;2023-04-24T11:50:21;14.60;93.30
49503;DHT22;35409;48.776;9.204;2023-04-24T11:52:48;14.30;93.90
49503;DHT22;35409;48.776;9.204;2023-04-24T11:57:43;13.70;94.80
49503;DHT22;35409;48.776;9.204;2023-04-24T12:00:18;13.40;95.00
49503;DHT22;35409;48.776;9.204;2023-04-24T12:02:44;13.20;95.30
49503;DHT22;35409;48.776;9.204;2023-04-24T12:05:24;13.20;97.10
49503;DHT22;35409;48.776;9.204;2023-04-24T12:07:52;13.50;96.80
49503;DHT22;35409;48.776;9.204;2023-04-24T12:12:48;14.30;95.00
49503;DHT22;35409;48.776;9.204;2023-04-24T12:15:16;14.60;94.80
49503;DHT22;35409;48.776;9.204;2023-04-24T12:17:42;14.70;93.80
49503;DHT22;35409;48.776;9.204;2023-04-24T12:20:09;14.50;93.10
49503;DHT22;35409;48.776;9.204;2023-04-24T12:22:45;14.20;93.50
49503;DHT22;35409;48.776;9.204;2023-04-24T12:25:12;14.00;93.90
49503;DHT22;35409;48.776;9.204;2023-04-24T12:27:38;13.70;94.40
49503;DHT22;35409;48.776;9.204;2023-04-24T12:30:05;13.50;95.00
49503;DHT22;35409;48.776;9.204;2023-04-24T12:32:31;13.40;95.00
49503;DHT22;35409;48.776;9.204;2023-04-24T12:34:58;13.40;94.30
49503;DHT22;35409;48.776;9.204;2023-04-24T12:37:26;13.30;94.30
49503;DHT22;35409;48.776;9.204;2023-04-24T12:40:09;13.30;94.30
49503;DHT22;35409;48.776;9.204;2023-04-24T12:42:41;13.20;94.50
49503;DHT22;35409;48.776;9.204;2023-04-24T12:45:07;13.20;94.60
49503;DHT22;35409;48.776;9.204;2023-04-24T12:47:33;13.40;94.20
49503;DHT22;35409;48.776;9.204;2023-04-24T12:50:00;13.60;94.10
49503;DHT22;35409;48.776;9.204;2023-04-24T12:52:28;13.70;93.80
49503;DHT22;35409;48.776;9.204;2023-04-24T12:54:55;13.70;93.80
49503;DHT22;35409;48.776;9.204;2023-04-24T12:57:22;13.60;93.90
49503;DHT22;35409;48.776;9.204;2023-04-24T12:59:48;13.50;94.20
49503;DHT22;35409;48.776;9.204;2023-04-24T13:02:13;13.40;93.90
49503;DHT22;35409;48.776;9.204;2023-04-24T13:04:49;13.20;94.30
49503;DHT22;35409;48.776;9.204;2023-04-24T13:07:15;13.00;95.40
49503;DHT22;35409;48.776;9.204;2023-04-24T13:09:42;12.80;96.20
49503;DHT22;35409;48.776;9.204;2023-04-24T13:12:08;12.60;97.60
49503;DHT22;35409;48.776;9.204;2023-04-24T13:14:34;12.30;99.90
49503;DHT22;35409;48.776;9.204;2023-04-24T13:17:00;11.80;99.90
49503;DHT22;35409;48.776;9.204;2023-04-24T13:19:26;11.50;99.90
49503;DHT22;35409;48.776;9.204;2023-04-24T13:21:56;11.40;99.90
49503;DHT22;35409;48.776;9.204;2023-04-24T13:24:23;11.40;99.90
49503;DHT22;35409;48.776;9.204;2023-04-24T13:26:54;11.60;99.90
49503;DHT22;35409;48.776;9.204;2023-04-24T13:29:20;11.80;99.90
49503;DHT22;35409;48.776;9.204;2023-04-24T13:31:52;12.40;99.90
49503;DHT22;35409;48.776;9.204;2023-04-24T13:34:23;12.90;99.90
49503;DHT22;35409;48.776;9.204;2023-04-24T13:36:53;13.00;99.90
49503;DHT22;35409;48.776;9.204;2023-04-24T13:39:20;13.00;99.90
49503;DHT22;35409;48.776;9.204;2023-04-24T13:41:46;12.90;99.90
49503;DHT22;35409;48.776;9.204;2023-04-24T13:44:13;12.60;99.90
49503;DHT22;35409;48.776;9.204;2023-04-24T13:46:39;12.50;99.90
49503;DHT22;35409;48.776;9.204;2023-04-24T13:49:05;12.50;99.90
49503;DHT22;35409;48.776;9.204;2023-04-24T13:51:30;12.30;99.90
49503;DHT22;35409;48.776;9.204;2023-04-24T13:53:56;12.10;99.90
49503;DHT22;35409;48.776;9.204;2023-04-24T13:56:22;11.90;99.90
49503;DHT22;35409;48.776;9.204;2023-04-24T13:58:48;11.50;99.90
49503;DHT22;35409;48.776;9.204;2023-04-24T14:01:14;11.00;99.90
49503;DHT22;35409;48.776;9.204;2023-04-24T14:03:41;10.40;99.90
49503;DHT22;35409;48.776;9.204;2023-04-24T14:06:07;10.00;99.90
49503;DHT22;35409;48.776;9.204;2023-04-24T14:08:32;9.90;99.90
49503;DHT22;35409;48.776;9.204;2023-04-24T14:10:58;10.20;99.90
49503;DHT22;35409;48.776;9.204;2023-04-24T14:13:24;11.00;99.90
49503;DHT22;35409;48.776;9.204;2023-04-24T14:15:50;11.60;99.90
49503;DHT22;35409;48.776;9.204;2023-04-24T14:18:16;11.90;99.90
49503;DHT22;35409;48.776;9.204;2023-04-24T14:20:42;12.30;99.90
49503;DHT22;35409;48.776;9.204;2023-04-24T14:23:08;12.60;99.90
49503;DHT22;35409;48.776;9.204;2023-04-24T14:25:33;13.00;99.90
49503;DHT22;35409;48.776;9.204;2023-04-24T14:27:59;13.60;99.90
49503;DHT22;35409;48.776;9.204;2023-04-24T14:30:25;13.90;99.90
49503;DHT22;35409;48.776;9.204;2023-04-24T14:32:50;14.30;99.90
49503;DHT22;35409;48.776;9.204;2023-04-24T14:35:16;14.50;99.90
49503;DHT22;35409;48.776;9.204;2023-04-24T14:37:42;14.80;99.90
49503;DHT22;35409;48.776;9.204;2023-04-24T14:40:08;15.10;99.90
49503;DHT22;35409;48.776;9.204;2023-04-24T14:42:34;15.50;99.90
49503;DHT22;35409;48.776;9.204;2023-04-24T15:38:37;12.50;99.90
49503;DHT22;35409;48.776;9.204;2023-04-24T15:41:03;12.40;99.90
49503;DHT22;35409;48.776;9.204;2023-04-24T15:43:29;12.20;99.90
49503;DHT22;35409;48.776;9.204;2023-04-24T15:45:56;11.70;99.90
49503;DHT22;35409;48.776;9.204;2023-04-24T15:48:22;11.10;99.90
49503;DHT22;35409;48.776;9.204;2023-04-24T15:50:48;10.60;99.90
49503;DHT22;35409;48.776;9.204;2023-04-24T15:53:13;10.30;99.90
49503;DHT22;35409;48.776;9.204;2023-04-24T15:55:49;10.10;99.90
49503;DHT22;35409;48.776;9.204;2023-04-24T15:58:15;10.00;99.90
49503;DHT22;35409;48.776;9.204;2023-04-24T16:00:41;9.90;99.90
49503;DHT22;35409;48.776;9.204;2023-04-24T16:03:07;9.90;99.90
49503;DHT22;35409;48.776;9.204;2023-04-24T16:05:33;10.10;99.90
49503;DHT22;35409;48.776;9.204;2023-04-24T16:07:58;10.50;99.90
49503;DHT22;35409;48.776;9.204;2023-04-24T16:10:24;11.00;99.90
49503;DHT22;35409;48.776;9.204;2023-04-24T16:12:50;11.40;99.90
49503;DHT22;35409;48.776;9.204;2023-04-24T16:15:19;11.70;99.90
49503;DHT22;35409;48.776;9.204;2023-04-24T16:17:45;11.80;99.90
49503;DHT22;35409;48.776;9.204;2023-04-24T16:20:11;12.00;99.90
49503;DHT22;35409;48.776;9.204;2023-04-24T16:22:38;12.30;99.90
49503;DHT22;35409;48.776;9.204;2023-04-24T16:25:04;12.60;99.90
49503;DHT22;35409;48.776;9.204;2023-04-24T16:27:30;12.70;99.90
49503;DHT22;35409;48.776;9.204;2023-04-24T16:29:56;12.80;99.90
49503;DHT22;35409;48.776;9.204;2023-04-24T16:32:21;12.60;99.90
49503;DHT22;35409;48.776;9.204;2023-04-24T16:34:47;12.20;99.90
49503;DHT22;35409;48.776;9.204;2023-04-24T16:37:13;12.00;99.90
49503;DHT22;35409;48.776;9.204;2023-04-24T16:39:39;11.70;99.90
49503;DHT22;35409;48.776;9.204;2023-04-24T16:42:12;11.50;99.90
49503;DHT22;35409;48.776;9.204;2023-04-24T16:44:41;11.40;99.90
49503;DHT22;35409;48.776;9.204;2023-04-24T16:47:08;11.30;99.90
49503;DHT22;35409;48.776;9.204;2023-04-24T16:49:34;11.20;99.90
49503;DHT22;35409;48.776;9.204;2023-04-24T16:52:00;11.10;99.90
49503;DHT22;35409;48.776;9.204;2023-04-24T16:54:26;11.00;99.90
49503;DHT22;35409;48.776;9.204;2023-04-24T16:56:52;11.10;99.90
49503;DHT22;35409;48.776;9.204;2023-04-24T16:59:18;11.10;99.90
49503;DHT22;35409;48.776;9.204;2023-04-24T17:01:44;11.10;99.90
49503;DHT22;35409;48.776;9.204;2023-04-24T17:04:10;11.20;99.90
49503;DHT22;35409;48.776;9.204;2023-04-24T17:06:35;11.20;99.90
49503;DHT22;35409;48.776;9.204;2023-04-24T17:09:01;11.20;99.90
49503;DHT22;35409;48.776;9.204;2023-04-24T17:11:28;11.20;99.90
49503;DHT22;35409;48.776;9.204;2023-04-24T17:13:53;11.30;99.90
49503;DHT22;35409;48.776;9.204;2023-04-24T17:16:19;11.30;99.90
49503;DHT22;35409;48.776;9.204;2023-04-24T17:18:45;11.40;99.90
49503;DHT22;35409;48.776;9.204;2023-04-24T17:21:10;11.50;99.90
49503;DHT22;35409;48.776;9.204;2023-04-24T17:23:36;11.50;99.90
49503;DHT22;35409;48.776;9.204;2023-04-24T17:26:02;11.40;99.90
49503;DHT22;35409;48.776;9.204;2023-04-24T17:28:30;11.40;99.90
49503;DHT22;35409;48.776;9.204;2023-04-24T17:30:56;11.40;99.90
49503;DHT22;35409;48.776;9.204;2023-04-24T17:33:25;11.40;99.90
49503;DHT22;35409;48.776;9.204;2023-04-24T17:35:51;11.30;99.90
49503;DHT22;35409;48.776;9.204;2023-04-24T17:38:17;11.20;99.90
49503;DHT22;35409;48.776;9.204;2023-04-24T17:40:43;11.20;99.90
49503;DHT22;35409;48.776;9.204;2023-04-24T17:43:13;11.20;99.90
49503;DHT22;35409;48.776;9.204;2023-04-24T17:45:43;11.20;99.90
49503;DHT22;35409;48.776;9.204;2023-04-24T17:48:10;11.10;99.90
49503;DHT22;35409;48.776;9.204;2023-04-24T17:50:36;11.00;99.90
49503;DHT22;35409;48.776;9.204;2023-04-24T17:53:02;10.90;99.90
49503;DHT22;35409;48.776;9.204;2023-04-24T17:55:27;10.80;99.90
49503;DHT22;35409;48.776;9.204;2023-04-24T17:57:53;10.70;99.90
49503;DHT22;35409;48.776;9.204;2023-04-24T18:00:19;10.70;99.90
49503;DHT22;35409;48.776;9.204;2023-04-24T18:02:45;10.70;99.90
49503;DHT22;35409;48.776;9.204;2023-04-24T18:05:10;10.70;99.90
49503;DHT22;35409;48.776;9.204;2023-04-24T18:07:36;10.70;99.90
49503;DHT22;35409;48.776;9.204;2023-04-24T18:10:02;10.60;99.90
49503;DHT22;35409;48.776;9.204;2023-04-24T18:12:28;10.60;99.90
49503;DHT22;35409;48.776;9.204;2023-04-24T18:14:53;10.60;99.90
49503;DHT22;35409;48.776;9.204;2023-04-24T18:17:20;10.50;99.90
49503;DHT22;35409;48.776;9.204;2023-04-24T18:19:45;10.50;99.90
49503;DHT22;35409;48.776;9.204;2023-04-24T18:22:11;10.40;99.90
49503;DHT22;35409;48.776;9.204;2023-04-24T18:24:36;10.40;99.90
49503;DHT22;35409;48.776;9.204;2023-04-24T18:27:02;10.40;99.90
49503;DHT22;35409;48.776;9.204;2023-04-24T18:29:28;10.40;99.90
49503;DHT22;35409;48.776;9.204;2023-04-24T18:31:53;10.40;99.90
49503;DHT22;35409;48.776;9.204;2023-04-24T18:34:19;10.30;99.90
49503;DHT22;35409;48.776;9.204;2023-04-24T18:36:45;10.30;99.90
49503;DHT22;35409;48.776;9.204;2023-04-24T18:39:10;10.30;99.90